Time;durP1;ratioP1;P1;durP2;ratioP2;P2;SDS_P1;SDS_P2;PMS_P1;PMS_P2;Temp;Humidity;BMP_temperature;BMP_pressure;BME280_temperature;BME280_humidity;BME280_pressure;Samples;Min_cycle;Max_cycle;Signal;HPM_P1;HPM_P2
2023/06/28 00:01:12;;;;;;;4.75;1.70;;;;;;;;;;10348472;28;20224;-81
2023/06/28 00:06:34;;;;;;;5.85;1.70;;;;;;;;;;10362236;28;20235;-81
2023/06/28 00:11:55;;;;;;;3.92;1.77;;;;;;;;;;10359113;28;20231;-79
2023/06/28 00:17:17;;;;;;;4.82;1.35;;;;;;;;;;10303441;28;20208;-80
2023/06/28 00:22:39;;;;;;;2.97;1.20;;;;;;;;;;10344965;28;20295;-80
2023/06/28 00:28:01;;;;;;;5.53;2.05;;;;;;;;;;10360496;28;20195;-79
2023/06/28 00:33:22;;;;;;;6.72;1.92;;;;;;;;;;10345184;28;20197;-80
2023/06/28 00:38:44;;;;;;;3.97;1.50;;;;;;;;;;10358780;28;20306;-79
2023/06/28 00:44:06;;;;;;;8.02;1.92;;;;;;;;;;10358713;28;20230;-79
2023/06/28 00:49:30;;;;;;;12.32;1.65;;;;;;;;;;10344416;28;20275;-79
2023/06/28 00:54:52;;;;;;;9.77;1.75;;;;;;;;;;10371179;28;20202;-79
2023/06/28 01:00:15;;;;;;;5.65;1.67;;;;;;;;;;10357846;28;20291;-80
2023/06/28 01:05:36;;;;;;;5.53;2.20;;;;;;;;;;10371553;28;20235;-79
2023/06/28 01:10:58;;;;;;;7.22;2.28;;;;;;;;;;10357999;28;20449;-80
2023/06/28 01:16:19;;;;;;;6.18;2.00;;;;;;;;;;10363285;28;20204;-80
2023/06/28 01:21:42;;;;;;;6.05;1.50;;;;;;;;;;10357226;28;20286;-79
2023/06/28 01:27:04;;;;;;;7.45;1.98;;;;;;;;;;10343260;28;20197;-79
2023/06/28 01:32:26;;;;;;;7.55;2.25;;;;;;;;;;10370554;28;20238;-79
2023/06/28 01:37:49;;;;;;;5.40;1.70;;;;;;;;;;10342701;28;20525;-79
2023/06/28 01:43:10;;;;;;;7.13;1.73;;;;;;;;;;10356556;28;20211;-79
2023/06/28 01:48:32;;;;;;;6.18;1.98;;;;;;;;;;10369912;28;20191;-79
2023/06/28 01:53:53;;;;;;;7.07;1.88;;;;;;;;;;10355791;28;20216;-81
2023/06/28 01:59:15;;;;;;;7.38;2.10;;;;;;;;;;10341659;28;20230;-79
2023/06/28 02:04:38;;;;;;;5.32;1.60;;;;;;;;;;10355367;28;20300;-79
2023/06/28 02:10:00;;;;;;;5.90;1.55;;;;;;;;;;10355324;28;20299;-79
2023/06/28 02:15:24;;;;;;;2.92;1.58;;;;;;;;;;10333254;28;20208;-78
2023/06/28 02:20:45;;;;;;;5.28;2.00;;;;;;;;;;10341139;28;20224;-79
2023/06/28 02:26:07;;;;;;;8.38;1.80;;;;;;;;;;10354782;28;20211;-79
2023/06/28 02:31:29;;;;;;;6.18;1.98;;;;;;;;;;10354415;28;20202;-79
2023/06/28 02:36:51;;;;;;;5.88;1.85;;;;;;;;;;10355651;28;20196;-79
2023/06/28 02:42:12;;;;;;;9.80;2.28;;;;;;;;;;10340365;28;20530;-79
2023/06/28 02:47:35;;;;;;;5.55;2.28;;;;;;;;;;10368288;28;20272;-79
2023/06/28 02:52:57;;;;;;;6.40;1.73;;;;;;;;;;10354185;28;20187;-80
2023/06/28 02:58:21;;;;;;;4.15;1.67;;;;;;;;;;10367790;28;20245;-79
2023/06/28 03:03:43;;;;;;;8.55;2.65;;;;;;;;;;10353645;28;20605;-79
2023/06/28 03:09:05;;;;;;;7.78;2.20;;;;;;;;;;10353754;28;20254;-79
2023/06/28 03:14:27;;;;;;;4.35;2.13;;;;;;;;;;10345526;28;20499;-78
2023/06/28 03:19:49;;;;;;;3.88;1.95;;;;;;;;;;10343038;28;20254;-79
2023/06/28 03:25:11;;;;;;;6.25;1.77;;;;;;;;;;10375682;28;20205;-79
2023/06/28 03:30:33;;;;;;;5.30;1.88;;;;;;;;;;10375033;28;20200;-79
2023/06/28 03:35:55;;;;;;;4.72;1.70;;;;;;;;;;10375318;28;20197;-79
2023/06/28 03:41:16;;;;;;;6.63;2.28;;;;;;;;;;10346836;28;20244;-79
2023/06/28 03:46:38;;;;;;;4.47;1.58;;;;;;;;;;10360744;28;20486;-79
2023/06/28 03:52:00;;;;;;;3.65;1.67;;;;;;;;;;10374845;28;20230;-82
2023/06/28 03:57:21;;;;;;;4.40;1.75;;;;;;;;;;10361452;28;20480;-81
2023/06/28 04:02:43;;;;;;;5.05;1.50;;;;;;;;;;10359816;28;20434;-80
2023/06/28 04:08:05;;;;;;;6.65;1.88;;;;;;;;;;10360035;28;20200;-80
2023/06/28 04:13:27;;;;;;;8.32;1.75;;;;;;;;;;10365908;28;20389;-82
2023/06/28 04:18:48;;;;;;;5.45;1.67;;;;;;;;;;10359679;28;20230;-80
2023/06/28 04:24:10;;;;;;;3.55;1.63;;;;;;;;;;10373266;28;20207;-81
2023/06/28 04:29:31;;;;;;;7.10;2.15;;;;;;;;;;10372720;28;20226;-81
2023/06/28 04:34:53;;;;;;;5.65;2.15;;;;;;;;;;10359292;28;20199;-79
2023/06/28 04:40:16;;;;;;;4.40;1.60;;;;;;;;;;10358484;28;20230;-80
2023/06/28 04:45:37;;;;;;;4.68;1.77;;;;;;;;;;10372316;28;20198;-78
2023/06/28 04:50:59;;;;;;;6.25;1.75;;;;;;;;;;10359406;28;20279;-78
2023/06/28 04:56:21;;;;;;;5.15;2.05;;;;;;;;;;10357790;28;20233;-79
2023/06/28 05:01:42;;;;;;;4.82;1.40;;;;;;;;;;10357765;28;20273;-80
2023/06/28 05:07:05;;;;;;;6.57;2.05;;;;;;;;;;10357483;28;20216;-80
2023/06/28 05:12:27;;;;;;;3.40;1.83;;;;;;;;;;10351947;28;20352;-82
2023/06/28 05:17:49;;;;;;;4.05;1.60;;;;;;;;;;10303877;28;20368;-80
2023/06/28 05:23:11;;;;;;;3.35;1.50;;;;;;;;;;10357305;28;20278;-80
2023/06/28 05:28:33;;;;;;;1.88;1.38;;;;;;;;;;10342932;28;20200;-79
2023/06/28 05:33:54;;;;;;;4.10;2.17;;;;;;;;;;10357950;28;20560;-80
2023/06/28 05:39:16;;;;;;;9.32;2.60;;;;;;;;;;10356102;28;20252;-80
2023/06/28 05:44:38;;;;;;;3.42;2.42;;;;;;;;;;10355361;28;20275;-78
2023/06/28 05:49:59;;;;;;;4.18;2.20;;;;;;;;;;10355635;28;20287;-79
2023/06/28 05:55:21;;;;;;;2.90;2.10;;;;;;;;;;10356661;28;20240;-79
2023/06/28 06:00:43;;;;;;;4.00;2.13;;;;;;;;;;10355431;28;20307;-79
2023/06/28 06:06:05;;;;;;;5.13;2.38;;;;;;;;;;10356147;28;20232;-79
2023/06/28 06:11:26;;;;;;;4.15;1.88;;;;;;;;;;10356534;28;20206;-80
2023/06/28 06:16:48;;;;;;;6.53;1.85;;;;;;;;;;10362330;28;20276;-79
2023/06/28 06:22:10;;;;;;;2.70;1.55;;;;;;;;;;10355608;28;20231;-80
2023/06/28 06:27:32;;;;;;;3.38;1.60;;;;;;;;;;10355643;28;20269;-80
2023/06/28 06:32:53;;;;;;;3.78;1.75;;;;;;;;;;10355488;28;20567;-78
2023/06/28 06:38:15;;;;;;;3.45;1.30;;;;;;;;;;10353991;28;20205;-79
2023/06/28 06:43:36;;;;;;;2.05;1.20;;;;;;;;;;10353948;28;20379;-78
2023/06/28 06:48:58;;;;;;;3.63;1.70;;;;;;;;;;10354783;28;20387;-83
2023/06/28 06:54:20;;;;;;;7.65;3.70;;;19.80;1.00;;;;;;10367572;28;20488;-78
2023/06/28 06:59:42;;;;;;;3.75;1.95;;;19.30;99.90;;;;;;10367762;28;20248;-80
2023/06/28 07:05:03;;;;;;;4.65;1.58;;;20.00;1.00;;;;;;10339755;28;20243;-80
2023/06/28 07:10:25;;;;;;;2.70;1.42;;;20.60;75.20;;;;;;10353427;28;20221;-80
2023/06/28 07:15:46;;;;;;;1.75;1.17;;;21.40;1.00;;;;;;10346769;28;20198;-79
2023/06/28 07:21:07;;;;;;;2.08;1.17;;;21.50;1.00;;;;;;10353175;28;20476;-80
2023/06/28 07:26:28;;;;;;;2.20;1.15;;;21.60;1.00;;;;;;10339713;28;20201;-78
2023/06/28 07:31:50;;;;;;;2.28;1.02;;;21.50;1.00;;;;;;10337404;28;20244;-80
2023/06/28 07:37:11;;;;;;;2.50;1.40;;;21.90;1.00;;;;;;10347363;28;20213;-80
2023/06/28 07:42:33;;;;;;;1.92;1.15;;;22.20;1.00;;;;;;10346520;28;20525;-84
2023/06/28 07:47:54;;;;;;;1.65;1.30;;;22.00;1.00;;;;;;10333642;28;20198;-79
2023/06/28 07:53:15;;;;;;;2.78;1.23;;;21.80;1.00;;;;;;10348179;28;20551;-77
2023/06/28 07:58:37;;;;;;;3.80;2.25;;;21.20;1.00;;;;;;10349248;28;20277;-78
2023/06/28 08:03:58;;;;;;;2.72;1.35;;;21.10;1.00;;;;;;10348582;28;20244;-79
2023/06/28 08:09:20;;;;;;;2.05;1.45;;;21.70;1.00;;;;;;10340736;28;20496;-77
2023/06/28 08:14:41;;;;;;;3.42;2.15;;;23.40;1.00;;;;;;10346061;28;20250;-79
2023/06/28 08:20:04;;;;;;;5.55;2.20;;;23.40;1.00;;;;;;10340922;28;20253;-79
2023/06/28 08:25:25;;;;;;;2.97;1.45;;;23.40;1.00;;;;;;10354855;28;20205;-79
2023/06/28 08:30:46;;;;;;;8.45;1.60;;;24.50;99.90;;;;;;10354319;28;20197;-81
2023/06/28 08:36:07;;;;;;;2.42;1.23;;;24.60;99.90;;;;;;10367976;28;20210;-78
2023/06/28 08:41:30;;;;;;;4.38;2.47;;;25.40;99.90;;;;;;10354842;28;20293;-80
2023/06/28 08:46:53;;;;;;;4.65;3.05;;;24.90;99.90;;;;;;10353128;28;20240;-79
2023/06/28 08:52:15;;;;;;;3.40;1.42;;;24.10;99.90;;;;;;10352635;28;20507;-78
2023/06/28 08:57:39;;;;;;;7.10;3.00;;;23.30;99.90;;;;;;10354644;28;20264;-80
2023/06/28 09:03:01;;;;;;;2.42;1.77;;;22.80;99.90;;;;;;10352163;28;20230;-79
2023/06/28 09:08:25;;;;;;;3.60;1.85;;;22.80;99.90;;;;;;10325291;28;20436;-80
2023/06/28 09:13:48;;;;;;;3.60;1.55;;;23.00;1.00;;;;;;10337971;28;20222;-84
2023/06/28 09:19:09;;;;;;;1.92;1.42;;;22.90;1.00;;;;;;10323921;28;20243;-91
2023/06/28 09:24:34;;;;;;;5.45;2.40;;;22.90;1.00;;;;;;10353691;28;20213;-92
2023/06/28 09:29:59;;;;;;;3.72;1.95;;;24.00;99.90;;;;;;10353095;28;20217;-80
2023/06/28 09:35:22;;;;;;;1.80;1.38;;;25.30;99.90;;;;;;10353737;28;20655;-86
2023/06/28 09:40:43;;;;;;;2.15;1.40;;;26.10;99.90;;;;;;10353388;28;20221;-78
2023/06/28 09:46:12;;;;;;;3.10;1.52;;;26.60;99.90;;;;;;10350557;28;20212;-79
2023/06/28 09:51:34;;;;;;;3.95;1.40;;;26.30;99.90;;;;;;10352229;28;20205;-78
2023/06/28 09:56:55;;;;;;;2.47;1.42;;;26.30;99.90;;;;;;10352035;28;20217;-78
2023/06/28 10:02:22;;;;;;;2.63;1.40;;;26.10;99.90;;;;;;10351385;28;20309;-84
2023/06/28 10:07:44;;;;;;;2.97;1.83;;;25.40;99.90;;;;;;10336954;28;20286;-79
2023/06/28 10:13:16;;;;;;;4.97;2.90;;;24.90;99.90;;;;;;10335984;28;20516;-80
2023/06/28 10:18:37;;;;;;;5.80;2.17;;;24.40;99.90;;;;;;10337891;28;20268;-78
2023/06/28 10:24:00;;;;;;;5.80;2.75;;;25.50;99.90;;;;;;10350094;28;20500;-82
2023/06/28 10:29:21;;;;;;;5.82;1.45;;;26.30;99.90;;;;;;10335727;28;20512;-83
2023/06/28 10:34:46;;;;;;;2.10;1.27;;;26.10;99.90;;;;;;10349347;28;20211;-81
2023/06/28 10:40:09;;;;;;;3.70;1.40;;;27.00;1.00;;;;;;10351226;28;20237;-80
2023/06/28 10:45:37;;;;;;;2.53;1.30;;;27.50;1.00;;;;;;10350251;28;20232;-79
2023/06/28 10:51:05;;;;;;;2.20;1.50;;;27.50;99.90;;;;;;10348446;28;20206;-79
2023/06/28 10:56:35;;;;;;;7.90;1.73;;;26.70;99.90;;;;;;10351065;28;20488;-84
2023/06/28 11:01:57;;;;;;;4.57;3.28;;;26.50;99.90;;;;;;10350246;28;20247;-80
2023/06/28 11:07:23;;;;;;;7.90;2.05;;;25.90;99.90;;;;;;10350690;28;20193;-79
2023/06/28 11:12:51;;;;;;;1.88;1.50;;;26.00;99.90;;;;;;10348377;28;20284;-79
2023/06/28 11:18:17;;;;;;;2.63;1.40;;;26.80;99.90;;;;;;10326252;28;20481;-86
2023/06/28 11:23:39;;;;;;;2.08;1.20;;;27.20;99.90;;;;;;10348856;28;20222;-80
2023/06/28 11:29:00;;;;;;;4.28;2.30;;;27.50;99.90;;;;;;10348926;28;20194;-83
2023/06/28 11:34:21;;;;;;;4.00;1.85;;;27.70;1.00;;;;;;10335013;28;20197;-84
2023/06/28 11:39:46;;;;;;;2.97;1.20;;;28.00;99.90;;;;;;10350220;28;20293;-80
2023/06/28 11:45:07;;;;;;;6.25;1.98;;;;;;;;;;10355439;28;20755;-80
2023/06/28 11:50:29;;;;;;;2.97;1.20;;;28.50;99.90;;;;;;10355863;28;20202;-83
2023/06/28 11:55:52;;;;;;;2.42;1.40;;;28.30;99.90;;;;;;10355772;28;20202;-79
2023/06/28 12:01:21;;;;;;;5.30;2.60;;;27.50;99.90;;;;;;10356080;28;20214;-85
2023/06/28 12:06:43;;;;;;;3.72;1.98;;;27.40;99.90;;;;;;10369138;28;20293;-81
2023/06/28 12:12:06;;;;;;;3.00;1.40;;;26.60;99.90;;;;;;10354365;28;20388;-81
2023/06/28 12:17:40;;;;;;;2.92;1.65;;;26.10;99.90;;;;;;10316537;28;20528;-82
2023/06/28 12:23:01;;;;;;;3.28;1.25;;;26.80;99.90;;;;;;10355851;28;20225;-79
2023/06/28 12:28:22;;;;;;;1.60;1.30;;;27.30;99.90;;;;;;10313916;28;20516;-80
2023/06/28 12:33:51;;;;;;;1.20;1.10;;;27.40;99.90;;;;;;10313908;28;20551;-82
2023/06/28 12:39:28;;;;;;;9.00;4.60;;;27.70;99.90;;;;;;10300668;28;20400;-78
2023/06/28 12:44:52;;;;;;;2.35;1.75;;;28.00;99.90;;;;;;10337147;28;20206;-88
2023/06/28 12:50:15;;;;;;;2.92;1.13;;;27.70;99.90;;;;;;10339528;28;20256;-79
2023/06/28 12:55:39;;;;;;;1.85;1.23;;;27.80;99.90;;;;;;10350153;28;20508;-79
2023/06/28 13:01:01;;;;;;;2.10;1.38;;;28.00;99.90;;;;;;10339224;28;20247;-82
2023/06/28 13:06:22;;;;;;;6.32;1.80;;;28.10;99.90;;;;;;10325638;28;20230;-85
2023/06/28 13:11:44;;;;;;;1.77;1.10;;;28.10;99.90;;;;;;10352788;28;20197;-80
2023/06/28 13:17:05;;;;;;;8.70;1.98;;;28.10;99.90;;;;;;10319752;28;20686;-81
2023/06/28 13:22:27;;;;;;;2.53;1.42;;;28.00;99.90;;;;;;10349752;28;20233;-82
2023/06/28 13:27:48;;;;;;;1.65;1.38;;;27.90;99.90;;;;;;10353567;28;20190;-80
2023/06/28 13:33:10;;;;;;;4.05;1.35;;;28.00;99.90;;;;;;10366162;28;20212;-83
2023/06/28 13:38:32;;;;;;;3.67;1.10;;;27.80;99.90;;;;;;10354156;28;20279;-87
2023/06/28 13:43:55;;;;;;;1.80;1.50;;;27.40;99.90;;;;;;10338092;28;20242;-89
2023/06/28 13:49:17;;;;;;;1.60;1.20;;;27.50;99.90;;;;;;10338357;28;20217;-88
2023/06/28 13:54:38;;;;;;;4.40;1.13;;;27.60;99.90;;;;;;10365209;28;20272;-85
2023/06/28 13:59:59;;;;;;;1.83;1.20;;;27.10;99.90;;;;;;10352452;28;20233;-79
2023/06/28 14:05:21;;;;;;;2.60;1.08;;;26.80;99.90;;;;;;10351326;28;20241;-81
2023/06/28 14:10:42;;;;;;;3.30;1.20;;;26.90;99.90;;;;;;10351177;28;20202;-80
2023/06/28 14:16:04;;;;;;;4.97;1.40;;;27.00;99.90;;;;;;10351950;28;20215;-82
2023/06/28 14:21:25;;;;;;;3.10;1.00;;;26.80;99.90;;;;;;10314038;28;20275;-80
2023/06/28 14:26:48;;;;;;;2.75;1.30;;;26.90;99.90;;;;;;10341148;28;20205;-80
2023/06/28 14:32:10;;;;;;;2.15;1.08;;;27.00;99.90;;;;;;10348435;28;20476;-83
2023/06/28 14:37:31;;;;;;;2.53;1.20;;;26.70;99.90;;;;;;10350921;28;20432;-82
2023/06/28 14:42:52;;;;;;;2.20;1.30;;;26.60;99.90;;;;;;10343470;28;20265;-82
2023/06/28 14:48:13;;;;;;;1.70;1.02;;;26.50;99.90;;;;;;10309933;28;20205;-82
2023/06/28 14:53:37;;;;;;;1.50;1.10;;;26.40;1.00;;;;;;10310280;28;20229;-83
2023/06/28 14:58:59;;;;;;;1.75;1.00;;;26.30;99.90;;;;;;10321001;28;20562;-83
2023/06/28 15:04:20;;;;;;;1.10;1.00;;;26.30;99.90;;;;;;10346213;28;20442;-81
2023/06/28 15:09:41;;;;;;;4.40;1.10;;;26.20;99.90;;;;;;10354039;28;20189;-78
2023/06/28 15:15:03;;;;;;;3.70;1.25;;;26.10;99.90;;;;;;10366498;28;20369;-81
2023/06/28 15:20:25;;;;;;;1.00;0.93;;;26.10;99.90;;;;;;10360385;28;20523;-81
2023/06/28 15:25:54;;;;;;;1.25;1.15;;;26.10;99.90;;;;;;10359161;28;20504;-81
2023/06/28 15:31:15;;;;;;;1.23;0.90;;;26.00;99.90;;;;;;10359090;28;20201;-81
2023/06/28 15:36:36;;;;;;;1.58;1.05;;;25.80;99.90;;;;;;10361529;28;20380;-81
2023/06/28 15:41:58;;;;;;;1.42;1.23;;;25.70;99.90;;;;;;10361168;28;20250;-79
2023/06/28 15:47:19;;;;;;;2.25;0.98;;;25.60;99.90;;;;;;10320630;28;20214;-81
2023/06/28 15:52:40;;;;;;;1.95;1.30;;;25.50;99.90;;;;;;10320929;28;20202;-82
2023/06/28 15:58:02;;;;;;;2.10;1.70;;;25.30;99.90;;;;;;10321411;28;20197;-80
2023/06/28 16:03:23;;;;;;;1.48;1.15;;;25.20;99.90;;;;;;10319580;28;20250;-79
2023/06/28 16:08:44;;;;;;;1.95;1.10;;;25.10;99.90;;;;;;10320913;28;20190;-82
2023/06/28 16:14:06;;;;;;;3.88;1.40;;;25.20;99.90;;;;;;10339565;28;20212;-80
2023/06/28 16:19:27;;;;;;;2.50;2.30;;;25.00;1.00;;;;;;10360786;28;20194;-78
2023/06/28 16:24:49;;;;;;;2.08;1.40;;;25.00;99.90;;;;;;10359942;28;20209;-79
2023/06/28 16:30:10;;;;;;;1.80;1.20;;;24.90;99.90;;;;;;10360035;28;20204;-80
2023/06/28 16:35:34;;;;;;;5.88;2.75;;;24.40;1.00;;;;;;10359198;28;20205;-80
2023/06/28 16:40:57;;;;;;;3.33;2.00;;;;;;;;;;10359038;28;20409;-81
2023/06/28 16:46:19;;;;;;;3.88;2.05;;;;;;;;;;10325873;28;20377;-83
2023/06/28 16:51:41;;;;;;;5.05;1.88;;;;;;;;;;10319422;28;20385;-82
2023/06/28 16:57:03;;;;;;;5.28;1.85;;;;;;;;;;10318214;28;20569;-82
2023/06/28 17:02:25;;;;;;;1.58;1.35;;;;;;;;;;10317845;28;20226;-81
2023/06/28 17:07:47;;;;;;;2.20;1.60;;;;;;;;;;10318818;28;20195;-79
2023/06/28 17:13:08;;;;;;;1.90;1.27;;;;;;;;;;10329288;28;20217;-80
2023/06/28 17:18:29;;;;;;;4.68;2.67;;;;;;;;;;10358497;28;20204;-82
2023/06/28 17:23:51;;;;;;;3.30;1.90;;;;;;;;;;10357471;28;20471;-80
2023/06/28 17:29:13;;;;;;;2.63;1.27;;;;;;;;;;10357250;28;20409;-80
2023/06/28 17:34:35;;;;;;;1.30;1.20;;;;;;;;;;10357037;28;20198;-81
2023/06/28 17:39:56;;;;;;;1.10;1.00;;;24.80;1.00;;;;;;10356124;28;20208;-80
2023/06/28 17:45:17;;;;;;;2.83;1.50;;;23.00;99.90;;;;;;10317028;28;20213;-80
2023/06/28 17:50:39;;;;;;;1.88;1.30;;;23.00;99.90;;;;;;10316646;28;20199;-80
2023/06/28 17:56:03;;;;;;;1.73;1.40;;;;;;;;;;10317054;28;20194;-80
2023/06/28 18:01:25;;;;;;;3.47;1.38;;;;;;;;;;10316823;28;20226;-81
2023/06/28 18:06:46;;;;;;;5.10;1.52;;;22.70;99.90;;;;;;10316615;28;20276;-82
2023/06/28 18:12:07;;;;;;;1.85;1.60;;;22.60;99.90;;;;;;10320393;28;20274;-82
2023/06/28 18:17:29;;;;;;;3.35;1.90;;;;;;;;;;10356136;28;20209;-82
2023/06/28 18:22:50;;;;;;;2.15;1.10;;;;;;;;;;10315878;28;20221;-80
2023/06/28 18:28:12;;;;;;;1.30;1.20;;;;;;;;;;10330606;28;20198;-80
2023/06/28 18:33:33;;;;;;;1.20;1.10;;;;;;;;;;10330970;28;20206;-82
2023/06/28 18:38:55;;;;;;;2.15;1.58;;;;;;;;;;10315834;28;20217;-80
2023/06/28 18:44:16;;;;;;;1.40;1.30;;;;;;;;;;10330209;28;20236;-81
2023/06/28 18:49:38;;;;;;;2.45;1.40;;;;;;;;;;10314885;28;20198;-82
2023/06/28 18:55:00;;;;;;;1.90;1.27;;;;;;;;;;10315117;28;20266;-81
2023/06/28 19:00:22;;;;;;;2.78;1.23;;;;;;;;;;10313792;28;20209;-82
2023/06/28 19:05:43;;;;;;;2.45;1.27;;;21.50;99.90;;;;;;10315014;28;20237;-81
2023/06/28 19:11:04;;;;;;;1.77;1.60;;;21.20;99.90;;;;;;10314469;28;20194;-82
2023/06/28 19:16:25;;;;;;;3.10;1.30;;;21.00;99.90;;;;;;10352104;28;20252;-80
2023/06/28 19:21:47;;;;;;;1.98;1.75;;;21.00;1.00;;;;;;10354613;28;20220;-81
2023/06/28 19:27:08;;;;;;;4.47;1.92;;;20.80;1.00;;;;;;10353872;28;20208;-80
2023/06/28 19:32:29;;;;;;;3.03;1.90;;;20.60;1.00;;;;;;10353668;28;20198;-81
2023/06/28 19:37:51;;;;;;;2.30;1.60;;;20.50;1.00;;;;;;10339684;28;20396;-80
2023/06/28 19:43:13;;;;;;;1.20;1.10;;;20.50;1.00;;;;;;10345367;28;20226;-81
2023/06/28 19:48:34;;;;;;;1.85;1.50;;;20.40;1.00;;;;;;10299678;28;20425;-82
2023/06/28 19:53:55;;;;;;;2.88;1.98;;;20.30;1.00;;;;;;10313823;28;20378;-81
2023/06/28 19:59:16;;;;;;;2.97;2.03;;;20.20;6.40;;;;;;10314132;28;20262;-82
2023/06/28 20:04:38;;;;;;;4.03;1.88;;;20.20;1.00;;;;;;10319833;28;20246;-82
2023/06/28 20:10:00;;;;;;;2.17;1.60;;;20.10;1.00;;;;;;10319817;28;20307;-81
2023/06/28 20:15:22;;;;;;;2.47;1.90;;;20.00;99.90;;;;;;10345527;28;20193;-83
2023/06/28 20:20:44;;;;;;;2.20;1.70;;;19.90;99.90;;;;;;10360842;28;20244;-81
2023/06/28 20:26:06;;;;;;;2.58;2.10;;;19.90;99.90;;;;;;10360865;28;20200;-82
2023/06/28 20:31:27;;;;;;;6.15;2.35;;;19.80;1.00;;;;;;10360731;28;20260;-82
2023/06/28 20:36:49;;;;;;;3.63;2.28;;;19.60;99.90;;;;;;10360410;28;20366;-82
2023/06/28 20:42:19;;;;;;;4.55;3.03;;;19.60;99.90;;;;;;10359548;28;20414;-81
2023/06/28 20:47:40;;;;;;;4.18;3.13;;;19.40;1.00;;;;;;10319717;28;20194;-81
2023/06/28 20:53:01;;;;;;;3.80;3.20;;;19.20;1.00;;;;;;10319563;28;20206;-82
2023/06/28 20:58:23;;;;;;;4.57;3.72;;;19.10;1.00;;;;;;10318344;28;20439;-82
2023/06/28 21:03:44;;;;;;;5.22;4.13;;;19.10;1.00;;;;;;10318001;28;20310;-81
2023/06/28 21:09:05;;;;;;;5.55;4.57;;;19.00;99.90;;;;;;10304307;28;20198;-81
2023/06/28 21:14:26;;;;;;;6.93;4.65;;;19.00;1.00;;;;;;10341357;28;20274;-81
2023/06/28 21:19:47;;;;;;;6.20;4.68;;;18.90;1.00;;;;;;10357521;28;20190;-79
2023/06/28 21:25:09;;;;;;;4.30;3.90;;;18.70;99.90;;;;;;10357391;28;20233;-82
2023/06/28 21:30:31;;;;;;;6.55;4.47;;;18.80;1.00;;;;;;10358463;28;20190;-80
2023/06/28 21:35:52;;;;;;;8.13;6.00;;;18.80;1.00;;;;;;10356880;28;20205;-79
2023/06/28 21:41:14;;;;;;;6.38;5.78;;;18.70;1.00;;;;;;10357133;28;20202;-80
2023/06/28 21:46:35;;;;;;;6.72;5.97;;;18.60;99.90;;;;;;10320545;28;20230;-81
2023/06/28 21:51:57;;;;;;;7.65;6.38;;;18.40;1.00;;;;;;10316177;28;20222;-80
2023/06/28 21:57:18;;;;;;;8.77;6.55;;;18.40;11.50;;;;;;10315953;28;20434;-81
2023/06/28 22:02:40;;;;;;;8.40;6.78;;;18.40;8.50;;;;;;10315159;28;20426;-81
2023/06/28 22:08:01;;;;;;;8.73;7.82;;;18.30;99.90;;;;;;10316752;28;20198;-82
2023/06/28 22:13:23;;;;;;;7.85;7.03;;;18.30;99.90;;;;;;10329778;28;20225;-80
2023/06/28 22:18:47;;;;;;;7.90;7.13;;;18.30;99.90;;;;;;10355112;28;20197;-81
2023/06/28 22:24:09;;;;;;;7.85;7.05;;;18.30;99.90;;;;;;10354715;28;20252;-80
2023/06/28 22:29:31;;;;;;;8.52;7.45;;;18.30;99.90;;;;;;10356039;28;20206;-80
2023/06/28 22:34:52;;;;;;;8.02;7.22;;;18.30;99.90;;;;;;10354884;28;20213;-79
2023/06/28 22:40:13;;;;;;;9.43;6.43;;;18.30;99.90;;;;;;10355876;28;20519;-79
2023/06/28 22:45:35;;;;;;;7.82;6.68;;;18.30;99.90;;;;;;10326360;28;20598;-81
2023/06/28 22:51:04;;;;;;;8.30;6.45;;;18.30;99.90;;;;;;10314350;28;20269;-80
2023/06/28 22:56:25;;;;;;;9.18;7.00;;;18.20;99.90;;;;;;10314058;28;20282;-80
2023/06/28 23:01:46;;;;;;;9.32;7.35;;;18.10;99.90;;;;;;10313552;28;20552;-81
2023/06/28 23:07:11;;;;;;;8.32;6.78;;;18.00;99.90;;;;;;10315217;28;20194;-80
2023/06/28 23:12:37;;;;;;;8.05;6.72;;;18.00;99.90;;;;;;10321528;28;20497;-81
2023/06/28 23:17:59;;;;;;;8.13;7.10;;;18.00;99.90;;;;;;10301402;28;20213;-81
2023/06/28 23:23:22;;;;;;;8.85;6.93;;;18.00;99.90;;;;;;10354871;28;20222;-82
2023/06/28 23:28:44;;;;;;;7.43;6.35;;;18.00;99.90;;;;;;10367560;28;20189;-82
2023/06/28 23:34:05;;;;;;;8.35;6.72;;;17.90;99.90;;;;;;10354524;28;20515;-81
2023/06/28 23:39:27;;;;;;;10.05;6.97;;;17.90;99.90;;;;;;10362080;28;20216;-82
2023/06/28 23:44:50;;;;;;;7.53;6.68;;;17.90;99.90;;;;;;10340490;28;20230;-80
2023/06/28 23:50:12;;;;;;;8.80;7.70;;;18.00;99.90;;;;;;10320765;28;20389;-81
2023/06/28 23:55:33;;;;;;;8.77;7.25;;;17.90;99.90;;;;;;10321025;28;20431;-82
